createdAt,value
2022-10-26T00:01:18.317Z,100.00
2022-10-26T00:04:07.115Z,100.00
2022-10-26T00:09:44.145Z,100.00
2022-10-26T00:18:13.540Z,100.00
2022-10-26T00:21:05.343Z,100.00
2022-10-26T00:26:36.803Z,100.00
2022-10-26T00:32:15.069Z,100.00
2022-10-26T00:35:10.726Z,100.00
2022-10-26T00:40:53.712Z,100.00
2022-10-26T00:46:31.132Z,100.00
2022-10-26T00:52:04.750Z,100.00
2022-10-26T00:57:32.916Z,100.00
2022-10-26T01:03:08.978Z,100.00
2022-10-26T01:08:43.180Z,100.00
2022-10-26T01:20:26.662Z,100.00
2022-10-26T01:26:47.688Z,100.00
2022-10-26T01:32:38.438Z,100.00
2022-10-26T01:38:16.753Z,100.00
2022-10-26T01:44:00.787Z,100.00
2022-10-26T01:49:37.607Z,100.00
2022-10-26T01:52:26.101Z,100.00
2022-10-26T01:55:46.282Z,100.00
2022-10-26T02:02:36.824Z,100.00
2022-10-26T02:08:34.171Z,100.00
2022-10-26T02:14:16.509Z,100.00
2022-10-26T02:22:41.013Z,100.00
2022-10-26T02:36:42.581Z,100.00
2022-10-26T02:42:12.221Z,100.00
2022-10-26T02:45:03.431Z,100.00
2022-10-26T02:50:44.531Z,100.00
2022-10-26T02:56:37.756Z,100.00
2022-10-26T03:02:14.726Z,100.00
2022-10-26T03:07:53.986Z,100.00
2022-10-26T03:13:23.072Z,100.00
2022-10-26T03:19:00.484Z,100.00
2022-10-26T03:27:16.225Z,100.00
2022-10-26T03:30:05.542Z,100.00
2022-10-26T03:35:39.506Z,100.00
2022-10-26T03:38:28.128Z,100.00
2022-10-26T03:41:17.788Z,100.00
2022-10-26T03:46:47.064Z,100.00
2022-10-26T03:49:36.074Z,100.00
2022-10-26T03:55:03.937Z,100.00
2022-10-26T04:00:33.482Z,100.00
2022-10-26T04:06:03.707Z,100.00
2022-10-26T04:08:54.036Z,100.00
2022-10-26T04:17:18.415Z,100.00
2022-10-26T04:23:03.230Z,100.00
2022-10-26T04:28:52.544Z,100.00
2022-10-26T04:39:45.160Z,100.00
2022-10-26T04:42:35.367Z,100.00
2022-10-26T04:45:30.869Z,100.00
2022-10-26T04:48:20.175Z,100.00
2022-10-26T04:53:58.036Z,100.00
2022-10-26T05:02:11.502Z,100.00
2022-10-26T05:10:36.910Z,100.00
2022-10-26T05:18:50.534Z,100.00
2022-10-26T05:24:27.917Z,100.00
2022-10-26T05:27:16.174Z,100.00
2022-10-26T05:32:56.322Z,100.00
2022-10-26T05:38:31.300Z,100.00
2022-10-26T05:44:00.425Z,100.00
2022-10-26T05:52:25.992Z,100.00
2022-10-26T05:58:03.261Z,100.00
2022-10-26T06:01:00.129Z,100.00
2022-10-26T06:06:52.037Z,100.00
2022-10-26T06:09:42.111Z,100.00
2022-10-26T06:18:05.072Z,100.00
2022-10-26T06:23:44.888Z,100.00
2022-10-26T06:32:10.057Z,100.00
2022-10-26T06:37:46.950Z,100.00
2022-10-26T06:43:29.897Z,100.00
2022-10-26T06:46:25.887Z,100.00
2022-10-26T06:49:20.623Z,100.00
2022-10-26T06:52:14.958Z,100.00
2022-10-26T06:57:51.078Z,100.00
2022-10-26T07:00:40.930Z,100.00
2022-10-26T07:08:56.375Z,100.00
2022-10-26T07:20:04.352Z,100.00
2022-10-26T07:25:46.070Z,100.00
2022-10-26T07:31:17.239Z,100.00
2022-10-26T07:34:06.156Z,100.00
2022-10-26T07:36:54.137Z,100.00
2022-10-26T07:42:31.662Z,100.00
2022-10-26T07:48:02.958Z,100.00
2022-10-26T07:53:35.284Z,100.00
2022-10-26T08:01:51.668Z,100.00
2022-10-26T08:10:23.413Z,100.00
2022-10-26T08:16:02.059Z,100.00
2022-10-26T08:24:23.798Z,100.00
2022-10-26T08:29:53.503Z,99.85
2022-10-26T08:35:27.662Z,100.00
2022-10-26T08:40:59.949Z,100.00
2022-10-26T08:46:30.990Z,100.00
2022-10-26T08:49:24.238Z,100.00
2022-10-26T08:52:15.953Z,100.00
2022-10-26T08:55:06.480Z,100.00
2022-10-26T08:57:55.544Z,100.00
2022-10-26T09:00:44.252Z,100.00
2022-10-26T09:09:13.211Z,100.00
2022-10-26T09:14:54.394Z,97.86
2022-10-26T09:24:03.383Z,97.22
2022-10-26T09:29:40.840Z,96.92
2022-10-26T09:35:23.964Z,92.13
2022-10-26T09:41:11.279Z,93.17
2022-10-26T09:44:02.841Z,91.67
2022-10-26T09:49:40.676Z,88.97
2022-10-26T09:52:29.141Z,83.25
2022-10-26T09:55:20.405Z,83.39
2022-10-26T10:04:23.380Z,85.36
2022-10-26T10:07:18.492Z,85.83
2022-10-26T10:15:55.162Z,80.59
2022-10-26T10:21:36.439Z,78.65
2022-10-26T10:27:15.201Z,76.69
2022-10-26T10:33:16.896Z,77.57
2022-10-26T10:36:08.614Z,76.77
2022-10-26T10:41:38.873Z,75.36
2022-10-26T10:47:13.910Z,74.05
2022-10-26T10:52:53.098Z,73.77
2022-10-26T10:55:43.410Z,73.84
2022-10-26T11:01:24.850Z,72.67
2022-10-26T11:04:30.256Z,71.50
2022-10-26T11:10:05.832Z,71.96
2022-10-26T11:15:45.175Z,69.98
2022-10-26T11:21:24.422Z,70.42
2022-10-26T11:24:19.432Z,69.98
2022-10-26T11:29:59.000Z,69.58
2022-10-26T11:32:50.339Z,68.56
2022-10-26T11:38:28.092Z,67.55
2022-10-26T11:46:46.092Z,67.38
2022-10-26T11:52:23.491Z,68.35
2022-10-26T11:57:57.299Z,67.10
2022-10-26T12:03:33.437Z,67.26
2022-10-26T12:06:24.185Z,65.87
2022-10-26T12:14:52.458Z,66.67
2022-10-26T12:17:43.914Z,65.80
2022-10-26T12:20:55.180Z,65.44
2022-10-26T12:29:39.613Z,65.67
2022-10-26T12:35:46.199Z,66.08
2022-10-26T12:39:00.835Z,67.29
2022-10-26T12:44:41.090Z,66.96
2022-10-26T12:48:10.710Z,66.42
2022-10-26T12:50:58.639Z,66.00
2022-10-26T12:56:36.302Z,67.09
2022-10-26T13:02:31.402Z,66.17
2022-10-26T13:08:16.309Z,66.16
2022-10-26T13:13:57.345Z,65.32
2022-10-26T13:16:47.339Z,65.64
2022-10-26T13:25:07.411Z,65.18
2022-10-26T13:30:49.889Z,65.91
2022-10-26T13:33:39.426Z,66.26
2022-10-26T13:44:58.561Z,66.57
2022-10-26T13:50:45.407Z,66.35
2022-10-26T13:53:41.376Z,65.91
2022-10-26T13:59:16.298Z,67.43
2022-10-26T14:05:18.847Z,67.01
2022-10-26T14:08:08.081Z,68.41
2022-10-26T14:10:59.067Z,67.62
2022-10-26T14:16:35.891Z,66.23
2022-10-26T14:22:27.636Z,66.50
2022-10-26T14:25:31.026Z,67.27
2022-10-26T14:31:30.235Z,66.93
2022-10-26T14:37:02.219Z,66.26
2022-10-26T14:42:33.632Z,67.66
2022-10-26T14:48:22.949Z,67.16
2022-10-26T14:51:14.414Z,67.79
2022-10-26T14:56:49.198Z,67.72
2022-10-26T15:02:26.710Z,67.97
2022-10-26T15:09:15.642Z,68.16
2022-10-26T15:12:06.900Z,68.82
2022-10-26T15:17:38.582Z,68.16
2022-10-26T15:23:15.625Z,68.50
2022-10-26T15:31:34.171Z,69.12
2022-10-26T15:37:10.330Z,70.07
2022-10-26T15:42:53.162Z,70.66
2022-10-26T15:48:30.418Z,71.36
2022-10-26T15:51:18.465Z,72.34
2022-10-26T15:56:48.445Z,73.75
2022-10-26T16:05:09.198Z,76.88
2022-10-26T16:10:43.822Z,77.68
2022-10-26T16:16:21.929Z,79.06
2022-10-26T16:19:31.404Z,79.54
2022-10-26T16:25:00.446Z,80.81
2022-10-26T16:30:48.688Z,82.49
2022-10-26T16:36:33.921Z,83.90
2022-10-26T16:42:21.412Z,85.29
2022-10-26T16:45:15.121Z,86.17
2022-10-26T16:51:06.574Z,87.68
2022-10-26T16:57:26.102Z,88.54
2022-10-26T17:00:18.084Z,89.22
2022-10-26T17:03:06.528Z,89.19
2022-10-26T17:05:59.255Z,90.01
2022-10-26T17:11:48.698Z,90.90
2022-10-26T17:20:17.809Z,92.17
2022-10-26T17:23:06.392Z,92.50
2022-10-26T17:28:37.470Z,93.04
2022-10-26T17:31:27.150Z,93.26
2022-10-26T17:37:03.769Z,94.13
2022-10-26T17:42:40.239Z,94.27
2022-10-26T17:45:28.868Z,94.79
2022-10-26T17:48:17.297Z,94.76
2022-10-26T17:54:06.405Z,95.54
2022-10-26T17:56:57.715Z,95.90
2022-10-26T18:02:38.972Z,96.48
2022-10-26T18:05:29.022Z,96.51
2022-10-26T18:08:17.857Z,96.75
2022-10-26T18:11:07.358Z,97.33
2022-10-26T18:16:50.447Z,97.28
2022-10-26T18:22:30.322Z,97.64
2022-10-26T18:28:09.170Z,97.74
2022-10-26T18:33:43.938Z,97.51
2022-10-26T18:36:32.335Z,97.64
2022-10-26T18:42:09.601Z,97.81
2022-10-26T18:45:00.639Z,98.11
2022-10-26T18:53:21.071Z,98.62
2022-10-26T18:58:55.317Z,98.86
2022-10-26T19:01:45.661Z,99.16
2022-10-26T19:04:34.470Z,99.71
2022-10-26T19:07:23.128Z,100.00
2022-10-26T19:12:59.699Z,100.00
2022-10-26T19:18:38.717Z,100.00
2022-10-26T19:24:19.484Z,100.00
2022-10-26T19:29:57.374Z,100.00
2022-10-26T19:49:29.907Z,100.00
2022-10-26T19:52:19.359Z,100.00
2022-10-26T19:55:10.209Z,100.00
2022-10-26T20:00:49.504Z,100.00
2022-10-26T20:06:32.871Z,99.62
2022-10-26T20:12:04.827Z,99.44
2022-10-26T20:14:53.537Z,99.28
2022-10-26T20:23:31.818Z,98.55
2022-10-26T20:29:14.260Z,98.57
2022-10-26T20:32:05.801Z,98.42
2022-10-26T20:37:46.023Z,98.85
2022-10-26T20:46:13.581Z,99.16
2022-10-26T20:49:02.998Z,99.25
2022-10-26T20:55:02.159Z,99.77
2022-10-26T21:00:37.791Z,99.72
2022-10-26T21:03:27.509Z,100.00
2022-10-26T21:09:01.392Z,100.00
2022-10-26T21:11:52.647Z,100.00
2022-10-26T21:17:27.861Z,100.00
2022-10-26T21:23:02.942Z,100.00
2022-10-26T21:28:42.076Z,100.00
2022-10-26T21:34:18.003Z,100.00
2022-10-26T21:40:11.735Z,100.00
2022-10-26T21:43:19.272Z,100.00
2022-10-26T21:46:08.532Z,100.00
2022-10-26T21:51:35.074Z,100.00
2022-10-26T21:57:11.452Z,100.00
2022-10-26T22:05:24.953Z,100.00
2022-10-26T22:13:41.287Z,100.00
2022-10-26T22:16:30.867Z,100.00
2022-10-26T22:22:02.052Z,100.00
2022-10-26T22:27:39.137Z,100.00
2022-10-26T22:33:13.027Z,100.00
2022-10-26T22:38:53.377Z,100.00
2022-10-26T22:41:42.671Z,100.00
2022-10-26T22:50:00.680Z,100.00
2022-10-26T22:55:40.204Z,100.00
2022-10-26T23:01:18.352Z,99.28
2022-10-26T23:06:56.904Z,99.11
2022-10-26T23:12:29.096Z,98.70
2022-10-26T23:18:03.501Z,100.00
2022-10-26T23:23:31.558Z,99.49
2022-10-26T23:26:22.020Z,98.72
2022-10-26T23:29:11.344Z,100.00
2022-10-26T23:34:43.178Z,100.00
2022-10-26T23:37:31.772Z,100.00
2022-10-26T23:43:00.234Z,100.00
2022-10-26T23:51:25.057Z,100.00
2022-10-26T23:57:00.462Z,100.00
